createdAt,value
2022-12-02T00:01:35.808Z,3.96
2022-12-02T00:16:37.373Z,4.46
2022-12-02T00:31:39.093Z,4.11
2022-12-02T00:46:40.682Z,3.55
2022-12-02T01:01:44.682Z,4.20
2022-12-02T01:16:46.489Z,3.60
2022-12-02T01:31:48.120Z,4.08
2022-12-02T01:46:49.680Z,4.29
2022-12-02T02:01:51.125Z,4.71
2022-12-02T02:16:52.683Z,4.08
2022-12-02T02:31:54.516Z,3.98
2022-12-02T02:46:56.576Z,4.08
2022-12-02T03:01:58.256Z,4.13
2022-12-02T03:17:01.601Z,4.17
2022-12-02T03:32:03.482Z,4.35
2022-12-02T03:47:05.164Z,4.28
2022-12-02T04:02:07.405Z,4.54
2022-12-02T04:17:08.974Z,4.06
2022-12-02T04:32:10.538Z,4.25
2022-12-02T04:47:12.018Z,4.06
2022-12-02T05:02:13.546Z,3.91
2022-12-02T05:17:15.075Z,4.22
2022-12-02T05:32:16.531Z,4.27
2022-12-02T05:47:18.391Z,3.84
2022-12-02T06:02:26.135Z,4.04
2022-12-02T06:17:29.074Z,3.71
2022-12-02T06:32:36.674Z,3.91
2022-12-02T06:47:38.307Z,3.24
2022-12-02T07:02:40.591Z,4.31
2022-12-02T07:17:43.132Z,4.35
2022-12-02T07:32:44.651Z,4.80
2022-12-02T07:47:46.191Z,4.74
2022-12-02T08:02:47.736Z,4.86
2022-12-02T08:17:49.247Z,4.75
2022-12-02T08:32:50.806Z,4.63
2022-12-02T08:47:52.415Z,5.62
2022-12-02T09:02:53.971Z,5.68
2022-12-02T09:17:55.496Z,5.11
2022-12-02T09:32:56.985Z,5.90
2022-12-02T09:47:58.515Z,5.55
2022-12-02T10:03:00.124Z,6.10
2022-12-02T10:18:07.665Z,6.82
2022-12-02T10:33:12.762Z,7.13
2022-12-02T10:48:17.405Z,6.26
2022-12-02T11:03:20.444Z,6.53
2022-12-02T11:18:24.937Z,7.27
2022-12-02T11:33:48.827Z,7.45
2022-12-02T11:48:54.989Z,7.20
2022-12-02T12:03:56.474Z,7.52
2022-12-02T12:19:20.696Z,7.43
2022-12-02T12:34:22.499Z,6.96
2022-12-02T12:49:24.084Z,7.08
2022-12-02T13:04:25.866Z,8.16
2022-12-02T13:19:27.415Z,7.33
2022-12-02T13:34:28.919Z,6.76
2022-12-02T13:49:30.459Z,6.92
2022-12-02T14:04:31.986Z,8.18
2022-12-02T14:19:33.502Z,7.40
2022-12-02T14:34:35.201Z,7.69
2022-12-02T14:49:40.078Z,7.43
2022-12-02T15:04:42.452Z,7.10
2022-12-02T15:19:43.941Z,7.20
2022-12-02T15:34:45.490Z,6.80
2022-12-02T15:49:47.295Z,6.98
2022-12-02T16:04:48.864Z,6.86
2022-12-02T16:19:50.549Z,7.23
2022-12-02T16:34:52.203Z,7.13
2022-12-02T16:49:53.951Z,6.80
2022-12-02T17:04:55.464Z,7.00
2022-12-02T17:19:57.001Z,6.87
2022-12-02T17:34:58.594Z,6.68
2022-12-02T17:50:00.103Z,6.77
2022-12-02T18:05:01.679Z,6.95
2022-12-02T18:20:03.399Z,7.92
2022-12-02T18:35:05.326Z,7.33
2022-12-02T18:50:07.643Z,7.59
2022-12-02T19:05:09.274Z,6.81
2022-12-02T19:20:11.052Z,8.11
2022-12-02T19:35:12.557Z,8.35
2022-12-02T19:50:14.566Z,7.40
2022-12-02T20:05:17.632Z,7.22
2022-12-02T20:20:19.146Z,7.05
2022-12-02T20:35:20.585Z,7.06
2022-12-02T20:50:22.086Z,7.18
2022-12-02T21:05:23.633Z,7.14
2022-12-02T21:20:25.155Z,8.83
2022-12-02T21:35:26.745Z,7.50
2022-12-02T21:50:28.215Z,7.52
2022-12-02T22:16:07.743Z,7.37
2022-12-02T22:31:09.221Z,6.93
2022-12-02T22:46:10.785Z,6.73
2022-12-02T23:01:12.334Z,7.09
2022-12-02T23:16:13.875Z,6.93
2022-12-02T23:31:15.514Z,6.84
2022-12-02T23:46:17.142Z,6.55
